Quick Links (Output Below):   Max & Min Temps   /   Climate Reports   /   Zone Forecasts
River Forecasts   /   Forestry Forecasts   /   Aviation Forecasts   /   Radars   /   Features

Terminal Aerodrome Forecast (Pine Bluff)

Pick a Site:
Arkadelphia | El Dorado | Fayetteville | Fort Smith | Harrison | Highfill | Hot Springs | Jonesboro
Little Rock | Monticello | Mountain Home | Pine Bluff | Texarkana
 Forecast 

KPBF 311120Z 3112/0112 32008KT P6SM SKC
     FM311500 35014G24KT P6SM SCT040
     FM010300 01008KT P6SM SKC=


 Latest METARs (Observations) 
How to Decode METARs
16Z KPBF 311553Z AUTO 01018G26KT 10SM CLR 15/06 A3019 RMK AO2 PK WND
         36029/1459 SLP222 T01500061
         
15Z KPBF 311453Z AUTO 36014G25KT 10SM CLR 14/07 A3017 RMK AO2 PK WND
         33028/1415 SLP216 T01440067 51028
         
14Z KPBF 311353Z AUTO 34014G23KT 10SM CLR 13/07 A3015 RMK AO2 SLP209
         T01330067
         
13Z KPBF 311253Z AUTO 33010G16KT 10SM CLR 12/06 A3012 RMK AO2 SLP197
         T01220061
         
12Z KPBF 311153Z AUTO 31008KT 10SM CLR 12/07 A3009 RMK AO2 SLP187
         70001 T01170067 10139 20117 53014
         
11Z KPBF 311053Z AUTO 31007KT 10SM CLR 12/07 A3007 RMK AO2 SLP180
         T01220067
         
10Z KPBF 310953Z AUTO 32008KT 10SM CLR 13/07 A3005 RMK AO2 SLP175
         T01280067
         
09Z KPBF 310853Z AUTO 32008KT 10SM CLR 13/07 A3005 RMK AO2 SLP172
         T01280072 50002
         
08Z KPBF 310753Z AUTO 32009KT 10SM CLR 13/08 A3005 RMK AO2 SLP173
         T01330078
         
07Z KPBF 310653Z AUTO 31007KT 10SM CLR 13/08 A3004 RMK AO2 SLP172
         T01280083
         
***** Today's Observations (Above) *****


Back to Main Page
http://www.srh.noaa.gov/lzk/qfcst.php

USA.gov is the U.S. government's official web portal to all federal, state and local government web resources and services.